sensor_id;sensor_type;location;lat;lon;timestamp;P1;P2;P0
79117;PMS7003;68523;51.336;-0.846;2023-09-30T00:00:00;7;3;
79117;PMS7003;68523;51.336;-0.846;2023-09-30T00:03:00;3;2;
79117;PMS7003;68523;51.336;-0.846;2023-09-30T00:06:00;11;7;
79117;PMS7003;68523;51.336;-0.846;2023-09-30T00:09:00;11;7;
79117;PMS7003;68523;51.336;-0.846;2023-09-30T00:12:00;5;5;
79117;PMS7003;68523;51.336;-0.846;2023-09-30T00:15:00;5;5;
79117;PMS7003;68523;51.336;-0.846;2023-09-30T00:18:00;29;21;
79117;PMS7003;68523;51.336;-0.846;2023-09-30T00:21:00;25;24;
79117;PMS7003;68523;51.336;-0.846;2023-09-30T00:24:00;25;24;
79117;PMS7003;68523;51.336;-0.846;2023-09-30T00:27:00;9;9;
79117;PMS7003;68523;51.336;-0.846;2023-09-30T00:30:00;9;9;
79117;PMS7003;68523;51.336;-0.846;2023-09-30T00:33:00;5;4;
79117;PMS7003;68523;51.336;-0.846;2023-09-30T00:36:05;7;7;
79117;PMS7003;68523;51.336;-0.846;2023-09-30T00:39:00;7;7;
79117;PMS7003;68523;51.336;-0.846;2023-09-30T00:42:00;10;10;
79117;PMS7003;68523;51.336;-0.846;2023-09-30T00:45:00;10;10;
79117;PMS7003;68523;51.336;-0.846;2023-09-30T00:48:01;7;5;
79117;PMS7003;68523;51.336;-0.846;2023-09-30T00:51:00;10;8;
79117;PMS7003;68523;51.336;-0.846;2023-09-30T00:54:00;10;8;
79117;PMS7003;68523;51.336;-0.846;2023-09-30T00:57:00;11;10;
79117;PMS7003;68523;51.336;-0.846;2023-09-30T01:00:00;11;10;
79117;PMS7003;68523;51.336;-0.846;2023-09-30T01:03:00;21;19;
79117;PMS7003;68523;51.336;-0.846;2023-09-30T01:06:00;23;22;
79117;PMS7003;68523;51.336;-0.846;2023-09-30T01:09:00;23;22;
79117;PMS7003;68523;51.336;-0.846;2023-09-30T01:12:00;25;23;
79117;PMS7003;68523;51.336;-0.846;2023-09-30T01:15:00;25;23;
79117;PMS7003;68523;51.336;-0.846;2023-09-30T01:18:00;8;7;
79117;PMS7003;68523;51.336;-0.846;2023-09-30T01:21:01;18;17;
79117;PMS7003;68523;51.336;-0.846;2023-09-30T01:24:00;18;17;
79117;PMS7003;68523;51.336;-0.846;2023-09-30T01:27:00;7;5;
79117;PMS7003;68523;51.336;-0.846;2023-09-30T01:30:00;7;5;
79117;PMS7003;68523;51.336;-0.846;2023-09-30T01:33:00;7;4;
79117;PMS7003;68523;51.336;-0.846;2023-09-30T01:36:00;6;4;
79117;PMS7003;68523;51.336;-0.846;2023-09-30T01:39:00;6;4;
79117;PMS7003;68523;51.336;-0.846;2023-09-30T01:42:00;7;6;
79117;PMS7003;68523;51.336;-0.846;2023-09-30T01:45:00;7;6;
79117;PMS7003;68523;51.336;-0.846;2023-09-30T01:48:01;10;9;
79117;PMS7003;68523;51.336;-0.846;2023-09-30T01:51:00;12;5;
79117;PMS7003;68523;51.336;-0.846;2023-09-30T01:54:00;12;5;
79117;PMS7003;68523;51.336;-0.846;2023-09-30T01:57:00;10;3;
79117;PMS7003;68523;51.336;-0.846;2023-09-30T02:00:00;10;3;
79117;PMS7003;68523;51.336;-0.846;2023-09-30T02:03:00;4;3;
79117;PMS7003;68523;51.336;-0.846;2023-09-30T02:06:00;5;3;
79117;PMS7003;68523;51.336;-0.846;2023-09-30T02:09:00;5;3;
79117;PMS7003;68523;51.336;-0.846;2023-09-30T02:12:00;4;4;
79117;PMS7003;68523;51.336;-0.846;2023-09-30T02:15:00;4;4;
79117;PMS7003;68523;51.336;-0.846;2023-09-30T02:18:00;4;4;
79117;PMS7003;68523;51.336;-0.846;2023-09-30T02:21:00;6;5;
79117;PMS7003;68523;51.336;-0.846;2023-09-30T02:24:00;6;5;
79117;PMS7003;68523;51.336;-0.846;2023-09-30T02:27:00;6;4;
79117;PMS7003;68523;51.336;-0.846;2023-09-30T02:30:00;6;4;
79117;PMS7003;68523;51.336;-0.846;2023-09-30T02:33:00;6;5;
79117;PMS7003;68523;51.336;-0.846;2023-09-30T02:36:00;6;2;
79117;PMS7003;68523;51.336;-0.846;2023-09-30T02:39:00;6;2;
79117;PMS7003;68523;51.336;-0.846;2023-09-30T02:42:00;4;2;
79117;PMS7003;68523;51.336;-0.846;2023-09-30T02:45:00;4;2;
79117;PMS7003;68523;51.336;-0.846;2023-09-30T02:48:00;2;2;
79117;PMS7003;68523;51.336;-0.846;2023-09-30T02:51:00;3;3;
79117;PMS7003;68523;51.336;-0.846;2023-09-30T02:54:01;3;3;
79117;PMS7003;68523;51.336;-0.846;2023-09-30T02:57:00;8;4;
79117;PMS7003;68523;51.336;-0.846;2023-09-30T03:00:01;8;4;
79117;PMS7003;68523;51.336;-0.846;2023-09-30T03:03:01;13;4;
79117;PMS7003;68523;51.336;-0.846;2023-09-30T03:06:00;8;8;
79117;PMS7003;68523;51.336;-0.846;2023-09-30T03:09:00;8;8;
79117;PMS7003;68523;51.336;-0.846;2023-09-30T03:12:00;5;5;
79117;PMS7003;68523;51.336;-0.846;2023-09-30T03:15:00;5;5;
79117;PMS7003;68523;51.336;-0.846;2023-09-30T03:18:00;9;4;
79117;PMS7003;68523;51.336;-0.846;2023-09-30T03:21:01;4;2;
79117;PMS7003;68523;51.336;-0.846;2023-09-30T03:24:00;4;2;
79117;PMS7003;68523;51.336;-0.846;2023-09-30T03:27:00;5;5;
79117;PMS7003;68523;51.336;-0.846;2023-09-30T03:30:01;5;5;
79117;PMS7003;68523;51.336;-0.846;2023-09-30T03:33:00;6;5;
79117;PMS7003;68523;51.336;-0.846;2023-09-30T03:36:00;10;6;
79117;PMS7003;68523;51.336;-0.846;2023-09-30T03:39:00;10;6;
79117;PMS7003;68523;51.336;-0.846;2023-09-30T03:42:00;9;5;
79117;PMS7003;68523;51.336;-0.846;2023-09-30T03:45:00;9;5;
79117;PMS7003;68523;51.336;-0.846;2023-09-30T03:48:01;12;5;
79117;PMS7003;68523;51.336;-0.846;2023-09-30T03:51:07;9;6;
79117;PMS7003;68523;51.336;-0.846;2023-09-30T03:54:00;9;6;
79117;PMS7003;68523;51.336;-0.846;2023-09-30T03:57:00;14;6;
79117;PMS7003;68523;51.336;-0.846;2023-09-30T04:00:01;14;6;
79117;PMS7003;68523;51.336;-0.846;2023-09-30T04:03:00;10;8;
79117;PMS7003;68523;51.336;-0.846;2023-09-30T04:06:01;10;8;
79117;PMS7003;68523;51.336;-0.846;2023-09-30T04:09:00;6;6;
79117;PMS7003;68523;51.336;-0.846;2023-09-30T04:12:00;13;11;
79117;PMS7003;68523;51.336;-0.846;2023-09-30T04:15:00;13;11;
79117;PMS7003;68523;51.336;-0.846;2023-09-30T04:18:00;8;5;
79117;PMS7003;68523;51.336;-0.846;2023-09-30T04:21:00;8;5;
79117;PMS7003;68523;51.336;-0.846;2023-09-30T04:24:00;10;5;
79117;PMS7003;68523;51.336;-0.846;2023-09-30T04:27:00;4;4;
79117;PMS7003;68523;51.336;-0.846;2023-09-30T04:30:00;4;4;
79117;PMS7003;68523;51.336;-0.846;2023-09-30T04:33:00;5;4;
79117;PMS7003;68523;51.336;-0.846;2023-09-30T04:36:00;5;4;
79117;PMS7003;68523;51.336;-0.846;2023-09-30T04:39:00;7;4;
79117;PMS7003;68523;51.336;-0.846;2023-09-30T04:42:00;5;5;
79117;PMS7003;68523;51.336;-0.846;2023-09-30T04:45:00;5;5;
79117;PMS7003;68523;51.336;-0.846;2023-09-30T04:48:00;6;4;
79117;PMS7003;68523;51.336;-0.846;2023-09-30T04:51:00;6;4;
79117;PMS7003;68523;51.336;-0.846;2023-09-30T04:54:01;5;4;
79117;PMS7003;68523;51.336;-0.846;2023-09-30T04:57:00;4;4;
79117;PMS7003;68523;51.336;-0.846;2023-09-30T05:00:00;4;4;
79117;PMS7003;68523;51.336;-0.846;2023-09-30T05:03:00;6;3;
79117;PMS7003;68523;51.336;-0.846;2023-09-30T05:06:00;6;3;
79117;PMS7003;68523;51.336;-0.846;2023-09-30T05:09:00;7;5;
79117;PMS7003;68523;51.336;-0.846;2023-09-30T05:12:00;5;4;
79117;PMS7003;68523;51.336;-0.846;2023-09-30T05:15:00;5;4;
79117;PMS7003;68523;51.336;-0.846;2023-09-30T05:18:00;7;5;
79117;PMS7003;68523;51.336;-0.846;2023-09-30T05:21:00;7;5;
79117;PMS7003;68523;51.336;-0.846;2023-09-30T05:24:00;5;4;
79117;PMS7003;68523;51.336;-0.846;2023-09-30T05:27:00;9;4;
79117;PMS7003;68523;51.336;-0.846;2023-09-30T05:30:00;9;4;
79117;PMS7003;68523;51.336;-0.846;2023-09-30T05:33:01;3;3;
79117;PMS7003;68523;51.336;-0.846;2023-09-30T05:36:00;3;3;
79117;PMS7003;68523;51.336;-0.846;2023-09-30T05:39:00;8;5;
79117;PMS7003;68523;51.336;-0.846;2023-09-30T05:42:00;6;4;
79117;PMS7003;68523;51.336;-0.846;2023-09-30T05:45:00;6;4;
79117;PMS7003;68523;51.336;-0.846;2023-09-30T05:48:01;6;5;
79117;PMS7003;68523;51.336;-0.846;2023-09-30T05:51:00;6;5;
79117;PMS7003;68523;51.336;-0.846;2023-09-30T05:54:00;3;3;
79117;PMS7003;68523;51.336;-0.846;2023-09-30T05:57:00;10;6;
79117;PMS7003;68523;51.336;-0.846;2023-09-30T06:00:00;10;6;
79117;PMS7003;68523;51.336;-0.846;2023-09-30T06:03:00;6;3;
79117;PMS7003;68523;51.336;-0.846;2023-09-30T06:06:00;6;3;
79117;PMS7003;68523;51.336;-0.846;2023-09-30T06:09:00;9;5;
79117;PMS7003;68523;51.336;-0.846;2023-09-30T06:12:00;10;4;
79117;PMS7003;68523;51.336;-0.846;2023-09-30T06:15:01;10;4;
79117;PMS7003;68523;51.336;-0.846;2023-09-30T06:18:00;4;4;
79117;PMS7003;68523;51.336;-0.846;2023-09-30T06:21:00;4;4;
79117;PMS7003;68523;51.336;-0.846;2023-09-30T06:24:00;5;4;
79117;PMS7003;68523;51.336;-0.846;2023-09-30T06:27:00;5;4;
79117;PMS7003;68523;51.336;-0.846;2023-09-30T06:30:00;5;4;
79117;PMS7003;68523;51.336;-0.846;2023-09-30T06:33:01;9;4;
79117;PMS7003;68523;51.336;-0.846;2023-09-30T06:36:00;9;4;
79117;PMS7003;68523;51.336;-0.846;2023-09-30T06:39:00;5;2;
79117;PMS7003;68523;51.336;-0.846;2023-09-30T06:42:00;4;2;
79117;PMS7003;68523;51.336;-0.846;2023-09-30T06:45:00;4;2;
79117;PMS7003;68523;51.336;-0.846;2023-09-30T06:48:00;5;3;
79117;PMS7003;68523;51.336;-0.846;2023-09-30T06:51:00;5;3;
79117;PMS7003;68523;51.336;-0.846;2023-09-30T06:54:00;8;3;
79117;PMS7003;68523;51.336;-0.846;2023-09-30T06:57:00;9;4;
79117;PMS7003;68523;51.336;-0.846;2023-09-30T07:00:00;9;4;
79117;PMS7003;68523;51.336;-0.846;2023-09-30T07:03:00;6;4;
79117;PMS7003;68523;51.336;-0.846;2023-09-30T07:06:00;6;4;
79117;PMS7003;68523;51.336;-0.846;2023-09-30T07:09:00;10;5;
79117;PMS7003;68523;51.336;-0.846;2023-09-30T07:12:00;14;7;
79117;PMS7003;68523;51.336;-0.846;2023-09-30T07:15:00;14;7;
79117;PMS7003;68523;51.336;-0.846;2023-09-30T07:18:00;11;8;
79117;PMS7003;68523;51.336;-0.846;2023-09-30T07:21:01;11;8;
79117;PMS7003;68523;51.336;-0.846;2023-09-30T07:24:00;8;6;
79117;PMS7003;68523;51.336;-0.846;2023-09-30T07:27:00;8;8;
79117;PMS7003;68523;51.336;-0.846;2023-09-30T07:30:00;8;8;
79117;PMS7003;68523;51.336;-0.846;2023-09-30T07:33:00;134;134;
79117;PMS7003;68523;51.336;-0.846;2023-09-30T07:36:00;134;134;
79117;PMS7003;68523;51.336;-0.846;2023-09-30T07:39:00;26;24;
79117;PMS7003;68523;51.336;-0.846;2023-09-30T07:42:00;13;11;
79117;PMS7003;68523;51.336;-0.846;2023-09-30T07:45:00;13;11;
79117;PMS7003;68523;51.336;-0.846;2023-09-30T07:48:00;15;13;
79117;PMS7003;68523;51.336;-0.846;2023-09-30T07:51:00;15;13;
79117;PMS7003;68523;51.336;-0.846;2023-09-30T07:54:00;7;3;
79117;PMS7003;68523;51.336;-0.846;2023-09-30T07:57:00;4;3;
79117;PMS7003;68523;51.336;-0.846;2023-09-30T08:00:00;4;3;
79117;PMS7003;68523;51.336;-0.846;2023-09-30T08:03:01;1;1;
79117;PMS7003;68523;51.336;-0.846;2023-09-30T08:06:02;1;1;
79117;PMS7003;68523;51.336;-0.846;2023-09-30T08:09:00;6;2;
79117;PMS7003;68523;51.336;-0.846;2023-09-30T08:12:00;2;2;
79117;PMS7003;68523;51.336;-0.846;2023-09-30T08:15:00;2;2;
79117;PMS7003;68523;51.336;-0.846;2023-09-30T08:18:00;3;2;
79117;PMS7003;68523;51.336;-0.846;2023-09-30T08:21:00;3;2;
79117;PMS7003;68523;51.336;-0.846;2023-09-30T08:24:01;1;1;
79117;PMS7003;68523;51.336;-0.846;2023-09-30T08:27:00;4;1;
79117;PMS7003;68523;51.336;-0.846;2023-09-30T08:30:00;4;1;
79117;PMS7003;68523;51.336;-0.846;2023-09-30T08:33:01;2;1;
79117;PMS7003;68523;51.336;-0.846;2023-09-30T08:36:02;2;1;
79117;PMS7003;68523;51.336;-0.846;2023-09-30T08:39:00;5;2;
79117;PMS7003;68523;51.336;-0.846;2023-09-30T08:42:00;3;1;
79117;PMS7003;68523;51.336;-0.846;2023-09-30T08:45:00;3;1;
79117;PMS7003;68523;51.336;-0.846;2023-09-30T08:48:00;3;0;
79117;PMS7003;68523;51.336;-0.846;2023-09-30T08:51:01;3;0;
79117;PMS7003;68523;51.336;-0.846;2023-09-30T08:54:00;5;3;
79117;PMS7003;68523;51.336;-0.846;2023-09-30T08:57:00;13;9;
79117;PMS7003;68523;51.336;-0.846;2023-09-30T09:00:00;13;9;
79117;PMS7003;68523;51.336;-0.846;2023-09-30T09:03:00;18;15;
79117;PMS7003;68523;51.336;-0.846;2023-09-30T09:06:00;18;15;
79117;PMS7003;68523;51.336;-0.846;2023-09-30T09:12:00;6;5;
79117;PMS7003;68523;51.336;-0.846;2023-09-30T09:15:01;6;5;
79117;PMS7003;68523;51.336;-0.846;2023-09-30T09:18:00;6;5;
79117;PMS7003;68523;51.336;-0.846;2023-09-30T09:21:08;6;5;
79117;PMS7003;68523;51.336;-0.846;2023-09-30T09:24:00;3;3;
79117;PMS7003;68523;51.336;-0.846;2023-09-30T09:27:04;3;2;
79117;PMS7003;68523;51.336;-0.846;2023-09-30T09:33:01;3;1;
79117;PMS7003;68523;51.336;-0.846;2023-09-30T09:36:00;3;1;
79117;PMS7003;68523;51.336;-0.846;2023-09-30T09:39:00;1;1;
79117;PMS7003;68523;51.336;-0.846;2023-09-30T09:42:00;2;1;
79117;PMS7003;68523;51.336;-0.846;2023-09-30T09:45:01;2;1;
79117;PMS7003;68523;51.336;-0.846;2023-09-30T09:48:00;3;1;
79117;PMS7003;68523;51.336;-0.846;2023-09-30T09:51:00;3;1;
79117;PMS7003;68523;51.336;-0.846;2023-09-30T09:54:00;3;0;
79117;PMS7003;68523;51.336;-0.846;2023-09-30T09:57:00;0;0;
79117;PMS7003;68523;51.336;-0.846;2023-09-30T10:00:03;0;0;
79117;PMS7003;68523;51.336;-0.846;2023-09-30T10:03:01;1;1;
79117;PMS7003;68523;51.336;-0.846;2023-09-30T10:06:00;1;1;
79117;PMS7003;68523;51.336;-0.846;2023-09-30T10:09:00;3;1;
79117;PMS7003;68523;51.336;-0.846;2023-09-30T10:12:00;2;1;
79117;PMS7003;68523;51.336;-0.846;2023-09-30T10:15:00;2;1;
79117;PMS7003;68523;51.336;-0.846;2023-09-30T10:18:01;3;2;
79117;PMS7003;68523;51.336;-0.846;2023-09-30T10:21:07;3;2;
79117;PMS7003;68523;51.336;-0.846;2023-09-30T10:30:06;3;2;
79117;PMS7003;68523;51.336;-0.846;2023-09-30T10:33:08;1;1;
79117;PMS7003;68523;51.336;-0.846;2023-09-30T10:36:00;1;1;
79117;PMS7003;68523;51.336;-0.846;2023-09-30T10:39:01;29;25;
79117;PMS7003;68523;51.336;-0.846;2023-09-30T10:42:00;53;44;
79117;PMS7003;68523;51.336;-0.846;2023-09-30T10:45:00;53;44;
79117;PMS7003;68523;51.336;-0.846;2023-09-30T10:51:01;47;40;
79117;PMS7003;68523;51.336;-0.846;2023-09-30T10:54:00;4;2;
79117;PMS7003;68523;51.336;-0.846;2023-09-30T10:57:01;13;7;
79117;PMS7003;68523;51.336;-0.846;2023-09-30T11:00:08;13;7;
79117;PMS7003;68523;51.336;-0.846;2023-09-30T11:03:00;8;2;
79117;PMS7003;68523;51.336;-0.846;2023-09-30T11:06:00;8;2;
79117;PMS7003;68523;51.336;-0.846;2023-09-30T11:09:01;10;3;
79117;PMS7003;68523;51.336;-0.846;2023-09-30T11:12:00;9;2;
79117;PMS7003;68523;51.336;-0.846;2023-09-30T11:15:01;9;2;
79117;PMS7003;68523;51.336;-0.846;2023-09-30T11:21:05;12;6;
79117;PMS7003;68523;51.336;-0.846;2023-09-30T11:24:00;10;4;
79117;PMS7003;68523;51.336;-0.846;2023-09-30T11:27:00;10;4;
79117;PMS7003;68523;51.336;-0.846;2023-09-30T11:30:02;11;4;
79117;PMS7003;68523;51.336;-0.846;2023-09-30T11:33:00;8;2;
79117;PMS7003;68523;51.336;-0.846;2023-09-30T11:36:01;8;2;
79117;PMS7003;68523;51.336;-0.846;2023-09-30T11:39:00;6;5;
79117;PMS7003;68523;51.336;-0.846;2023-09-30T11:42:00;6;5;
79117;PMS7003;68523;51.336;-0.846;2023-09-30T11:45:00;4;4;
79117;PMS7003;68523;51.336;-0.846;2023-09-30T11:48:00;5;5;
79117;PMS7003;68523;51.336;-0.846;2023-09-30T11:51:00;5;5;
79117;PMS7003;68523;51.336;-0.846;2023-09-30T11:54:00;5;5;
79117;PMS7003;68523;51.336;-0.846;2023-09-30T11:57:01;5;5;
79117;PMS7003;68523;51.336;-0.846;2023-09-30T12:00:00;7;7;
79117;PMS7003;68523;51.336;-0.846;2023-09-30T12:03:00;11;6;
79117;PMS7003;68523;51.336;-0.846;2023-09-30T12:06:00;11;6;
79117;PMS7003;68523;51.336;-0.846;2023-09-30T12:09:00;31;26;
79117;PMS7003;68523;51.336;-0.846;2023-09-30T12:12:00;31;26;
79117;PMS7003;68523;51.336;-0.846;2023-09-30T12:15:00;30;30;
79117;PMS7003;68523;51.336;-0.846;2023-09-30T12:18:00;19;18;
79117;PMS7003;68523;51.336;-0.846;2023-09-30T12:21:00;19;18;
79117;PMS7003;68523;51.336;-0.846;2023-09-30T12:24:00;6;6;
79117;PMS7003;68523;51.336;-0.846;2023-09-30T12:27:00;6;6;
79117;PMS7003;68523;51.336;-0.846;2023-09-30T12:30:00;6;5;
79117;PMS7003;68523;51.336;-0.846;2023-09-30T12:33:00;6;5;
79117;PMS7003;68523;51.336;-0.846;2023-09-30T12:36:00;6;5;
79117;PMS7003;68523;51.336;-0.846;2023-09-30T12:39:00;17;16;
79117;PMS7003;68523;51.336;-0.846;2023-09-30T12:42:00;17;16;
79117;PMS7003;68523;51.336;-0.846;2023-09-30T12:45:00;9;7;
79117;PMS7003;68523;51.336;-0.846;2023-09-30T12:48:00;6;6;
79117;PMS7003;68523;51.336;-0.846;2023-09-30T12:51:00;6;6;
79117;PMS7003;68523;51.336;-0.846;2023-09-30T12:54:00;4;4;
79117;PMS7003;68523;51.336;-0.846;2023-09-30T12:57:00;4;4;
79117;PMS7003;68523;51.336;-0.846;2023-09-30T13:00:00;5;5;
79117;PMS7003;68523;51.336;-0.846;2023-09-30T13:03:00;5;3;
79117;PMS7003;68523;51.336;-0.846;2023-09-30T13:06:00;5;3;
79117;PMS7003;68523;51.336;-0.846;2023-09-30T13:09:00;5;3;
79117;PMS7003;68523;51.336;-0.846;2023-09-30T13:12:00;5;3;
79117;PMS7003;68523;51.336;-0.846;2023-09-30T13:15:00;7;4;
79117;PMS7003;68523;51.336;-0.846;2023-09-30T13:18:00;9;5;
79117;PMS7003;68523;51.336;-0.846;2023-09-30T13:21:00;9;5;
79117;PMS7003;68523;51.336;-0.846;2023-09-30T13:24:00;20;20;
79117;PMS7003;68523;51.336;-0.846;2023-09-30T13:27:00;20;20;
79117;PMS7003;68523;51.336;-0.846;2023-09-30T13:30:00;31;30;
79117;PMS7003;68523;51.336;-0.846;2023-09-30T13:33:00;26;26;
79117;PMS7003;68523;51.336;-0.846;2023-09-30T13:36:00;26;26;
79117;PMS7003;68523;51.336;-0.846;2023-09-30T13:39:00;9;8;
79117;PMS7003;68523;51.336;-0.846;2023-09-30T13:42:00;9;8;
79117;PMS7003;68523;51.336;-0.846;2023-09-30T13:45:00;4;2;
79117;PMS7003;68523;51.336;-0.846;2023-09-30T13:48:00;6;3;
79117;PMS7003;68523;51.336;-0.846;2023-09-30T13:51:04;6;3;
79117;PMS7003;68523;51.336;-0.846;2023-09-30T13:54:00;1;1;
79117;PMS7003;68523;51.336;-0.846;2023-09-30T13:57:00;1;1;
79117;PMS7003;68523;51.336;-0.846;2023-09-30T14:00:00;7;4;
79117;PMS7003;68523;51.336;-0.846;2023-09-30T14:03:00;5;3;
79117;PMS7003;68523;51.336;-0.846;2023-09-30T14:06:00;5;3;
79117;PMS7003;68523;51.336;-0.846;2023-09-30T14:09:00;5;4;
79117;PMS7003;68523;51.336;-0.846;2023-09-30T14:12:00;5;4;
79117;PMS7003;68523;51.336;-0.846;2023-09-30T14:15:00;6;6;
79117;PMS7003;68523;51.336;-0.846;2023-09-30T14:18:00;2;2;
79117;PMS7003;68523;51.336;-0.846;2023-09-30T14:21:00;2;2;
79117;PMS7003;68523;51.336;-0.846;2023-09-30T14:24:00;3;3;
79117;PMS7003;68523;51.336;-0.846;2023-09-30T14:27:00;3;3;
79117;PMS7003;68523;51.336;-0.846;2023-09-30T14:30:00;10;7;
79117;PMS7003;68523;51.336;-0.846;2023-09-30T14:33:00;4;4;
79117;PMS7003;68523;51.336;-0.846;2023-09-30T14:39:00;4;4;
79117;PMS7003;68523;51.336;-0.846;2023-09-30T14:42:00;4;4;
79117;PMS7003;68523;51.336;-0.846;2023-09-30T14:45:00;3;3;
79117;PMS7003;68523;51.336;-0.846;2023-09-30T14:48:00;1;1;
79117;PMS7003;68523;51.336;-0.846;2023-09-30T14:51:00;1;1;
79117;PMS7003;68523;51.336;-0.846;2023-09-30T14:54:00;3;2;
79117;PMS7003;68523;51.336;-0.846;2023-09-30T14:57:00;3;2;
79117;PMS7003;68523;51.336;-0.846;2023-09-30T15:00:00;3;3;
79117;PMS7003;68523;51.336;-0.846;2023-09-30T15:03:01;3;2;
79117;PMS7003;68523;51.336;-0.846;2023-09-30T15:06:00;3;2;
79117;PMS7003;68523;51.336;-0.846;2023-09-30T15:09:00;1;1;
79117;PMS7003;68523;51.336;-0.846;2023-09-30T15:12:00;1;1;
79117;PMS7003;68523;51.336;-0.846;2023-09-30T15:15:00;1;1;
79117;PMS7003;68523;51.336;-0.846;2023-09-30T15:18:00;2;1;
79117;PMS7003;68523;51.336;-0.846;2023-09-30T15:21:00;2;1;
79117;PMS7003;68523;51.336;-0.846;2023-09-30T15:24:00;3;2;
79117;PMS7003;68523;51.336;-0.846;2023-09-30T15:27:00;3;2;
79117;PMS7003;68523;51.336;-0.846;2023-09-30T15:30:01;4;4;
79117;PMS7003;68523;51.336;-0.846;2023-09-30T15:33:00;1;1;
79117;PMS7003;68523;51.336;-0.846;2023-09-30T15:36:08;1;1;
79117;PMS7003;68523;51.336;-0.846;2023-09-30T15:39:00;8;7;
79117;PMS7003;68523;51.336;-0.846;2023-09-30T15:42:00;8;7;
79117;PMS7003;68523;51.336;-0.846;2023-09-30T15:45:00;11;10;
79117;PMS7003;68523;51.336;-0.846;2023-09-30T15:48:00;9;8;
79117;PMS7003;68523;51.336;-0.846;2023-09-30T15:51:00;9;8;
79117;PMS7003;68523;51.336;-0.846;2023-09-30T15:54:00;unavailable;unavailable;
79117;PMS7003;68523;51.336;-0.846;2023-09-30T15:57:00;unavailable;unavailable;
79117;PMS7003;68523;51.336;-0.846;2023-09-30T16:00:00;unavailable;unavailable;
79117;PMS7003;68523;51.336;-0.846;2023-09-30T16:03:00;unavailable;unavailable;
79117;PMS7003;68523;51.336;-0.846;2023-09-30T16:06:03;unknown;unknown;
79117;PMS7003;68523;51.336;-0.846;2023-09-30T16:09:00;4;2;
79117;PMS7003;68523;51.336;-0.846;2023-09-30T16:12:00;4;2;
79117;PMS7003;68523;51.336;-0.846;2023-09-30T16:15:00;2;1;
79117;PMS7003;68523;51.336;-0.846;2023-09-30T16:18:01;2;1;
79117;PMS7003;68523;51.336;-0.846;2023-09-30T16:21:00;2;2;
79117;PMS7003;68523;51.336;-0.846;2023-09-30T16:24:00;6;4;
79117;PMS7003;68523;51.336;-0.846;2023-09-30T16:27:00;6;4;
79117;PMS7003;68523;51.336;-0.846;2023-09-30T16:30:00;3;3;
79117;PMS7003;68523;51.336;-0.846;2023-09-30T16:33:00;3;3;
79117;PMS7003;68523;51.336;-0.846;2023-09-30T16:36:00;6;5;
79117;PMS7003;68523;51.336;-0.846;2023-09-30T16:39:00;6;5;
79117;PMS7003;68523;51.336;-0.846;2023-09-30T16:42:00;6;5;
79117;PMS7003;68523;51.336;-0.846;2023-09-30T16:45:00;19;17;
79117;PMS7003;68523;51.336;-0.846;2023-09-30T16:48:00;19;17;
79117;PMS7003;68523;51.336;-0.846;2023-09-30T16:51:00;19;17;
79117;PMS7003;68523;51.336;-0.846;2023-09-30T16:54:00;24;24;
79117;PMS7003;68523;51.336;-0.846;2023-09-30T16:57:00;24;24;
79117;PMS7003;68523;51.336;-0.846;2023-09-30T17:00:00;18;17;
79117;PMS7003;68523;51.336;-0.846;2023-09-30T17:03:00;18;17;
79117;PMS7003;68523;51.336;-0.846;2023-09-30T17:06:00;12;12;
79117;PMS7003;68523;51.336;-0.846;2023-09-30T17:09:00;10;8;
79117;PMS7003;68523;51.336;-0.846;2023-09-30T17:12:00;10;8;
79117;PMS7003;68523;51.336;-0.846;2023-09-30T17:15:01;13;13;
79117;PMS7003;68523;51.336;-0.846;2023-09-30T17:18:00;13;13;
79117;PMS7003;68523;51.336;-0.846;2023-09-30T17:21:00;15;14;
79117;PMS7003;68523;51.336;-0.846;2023-09-30T17:24:00;6;5;
79117;PMS7003;68523;51.336;-0.846;2023-09-30T17:27:00;6;5;
79117;PMS7003;68523;51.336;-0.846;2023-09-30T17:30:00;6;6;
79117;PMS7003;68523;51.336;-0.846;2023-09-30T17:33:00;6;6;
79117;PMS7003;68523;51.336;-0.846;2023-09-30T17:36:00;5;4;
79117;PMS7003;68523;51.336;-0.846;2023-09-30T17:39:00;4;3;
79117;PMS7003;68523;51.336;-0.846;2023-09-30T17:42:00;4;3;
79117;PMS7003;68523;51.336;-0.846;2023-09-30T17:45:00;8;5;
79117;PMS7003;68523;51.336;-0.846;2023-09-30T17:48:00;8;5;
79117;PMS7003;68523;51.336;-0.846;2023-09-30T17:51:00;12;11;
79117;PMS7003;68523;51.336;-0.846;2023-09-30T17:54:00;7;6;
79117;PMS7003;68523;51.336;-0.846;2023-09-30T17:57:00;7;6;
79117;PMS7003;68523;51.336;-0.846;2023-09-30T18:00:00;5;5;
79117;PMS7003;68523;51.336;-0.846;2023-09-30T18:03:00;5;5;
79117;PMS7003;68523;51.336;-0.846;2023-09-30T18:06:04;9;5;
79117;PMS7003;68523;51.336;-0.846;2023-09-30T18:09:00;7;6;
79117;PMS7003;68523;51.336;-0.846;2023-09-30T18:12:00;7;6;
79117;PMS7003;68523;51.336;-0.846;2023-09-30T18:15:00;5;5;
79117;PMS7003;68523;51.336;-0.846;2023-09-30T18:18:00;5;5;
79117;PMS7003;68523;51.336;-0.846;2023-09-30T18:21:00;7;6;
79117;PMS7003;68523;51.336;-0.846;2023-09-30T18:24:00;7;3;
79117;PMS7003;68523;51.336;-0.846;2023-09-30T18:27:00;7;3;
79117;PMS7003;68523;51.336;-0.846;2023-09-30T18:30:02;4;4;
79117;PMS7003;68523;51.336;-0.846;2023-09-30T18:33:00;4;4;
79117;PMS7003;68523;51.336;-0.846;2023-09-30T18:36:00;5;4;
79117;PMS7003;68523;51.336;-0.846;2023-09-30T18:39:00;6;5;
79117;PMS7003;68523;51.336;-0.846;2023-09-30T18:42:00;6;5;
79117;PMS7003;68523;51.336;-0.846;2023-09-30T18:45:00;5;5;
79117;PMS7003;68523;51.336;-0.846;2023-09-30T18:48:00;5;5;
79117;PMS7003;68523;51.336;-0.846;2023-09-30T18:51:00;7;6;
79117;PMS7003;68523;51.336;-0.846;2023-09-30T18:54:00;8;5;
79117;PMS7003;68523;51.336;-0.846;2023-09-30T18:57:00;8;5;
79117;PMS7003;68523;51.336;-0.846;2023-09-30T19:00:00;6;5;
79117;PMS7003;68523;51.336;-0.846;2023-09-30T19:03:00;6;5;
79117;PMS7003;68523;51.336;-0.846;2023-09-30T19:06:00;5;5;
79117;PMS7003;68523;51.336;-0.846;2023-09-30T19:09:00;5;4;
79117;PMS7003;68523;51.336;-0.846;2023-09-30T19:12:00;5;4;
79117;PMS7003;68523;51.336;-0.846;2023-09-30T19:15:00;4;4;
79117;PMS7003;68523;51.336;-0.846;2023-09-30T19:18:00;4;4;
79117;PMS7003;68523;51.336;-0.846;2023-09-30T19:21:00;5;5;
79117;PMS7003;68523;51.336;-0.846;2023-09-30T19:24:00;5;5;
79117;PMS7003;68523;51.336;-0.846;2023-09-30T19:27:00;6;4;
79117;PMS7003;68523;51.336;-0.846;2023-09-30T19:30:00;5;4;
79117;PMS7003;68523;51.336;-0.846;2023-09-30T19:33:00;5;4;
79117;PMS7003;68523;51.336;-0.846;2023-09-30T19:36:05;4;4;
79117;PMS7003;68523;51.336;-0.846;2023-09-30T19:39:00;4;4;
79117;PMS7003;68523;51.336;-0.846;2023-09-30T19:42:00;4;2;
79117;PMS7003;68523;51.336;-0.846;2023-09-30T19:45:00;6;5;
79117;PMS7003;68523;51.336;-0.846;2023-09-30T19:48:00;6;5;
79117;PMS7003;68523;51.336;-0.846;2023-09-30T19:51:00;9;5;
79117;PMS7003;68523;51.336;-0.846;2023-09-30T19:54:00;9;5;
79117;PMS7003;68523;51.336;-0.846;2023-09-30T19:57:00;2;2;
79117;PMS7003;68523;51.336;-0.846;2023-09-30T20:00:00;5;5;
79117;PMS7003;68523;51.336;-0.846;2023-09-30T20:03:00;5;5;
79117;PMS7003;68523;51.336;-0.846;2023-09-30T20:06:00;7;6;
79117;PMS7003;68523;51.336;-0.846;2023-09-30T20:09:00;7;6;
79117;PMS7003;68523;51.336;-0.846;2023-09-30T20:12:00;8;3;
79117;PMS7003;68523;51.336;-0.846;2023-09-30T20:15:00;5;5;
79117;PMS7003;68523;51.336;-0.846;2023-09-30T20:18:00;5;5;
79117;PMS7003;68523;51.336;-0.846;2023-09-30T20:21:01;5;4;